Time;durP1;ratioP1;P1;durP2;ratioP2;P2;SDS_P1;SDS_P2;PMS_P1;PMS_P2;Temp;Humidity;BMP_temperature;BMP_pressure;BME280_temperature;BME280_humidity;BME280_pressure;Samples;Min_cycle;Max_cycle;Signal;HPM_P1;HPM_P2
2022/03/25 05:30:35;;;;;;;;;68.25;46.00;;;;;14.25;34.49;102321.44;5062211;27;46139;-75
2022/03/25 05:33:01;;;;;;;;;61.25;46.00;;;;;14.15;34.07;102300.25;5054472;28;45448;-73
2022/03/25 05:35:29;;;;;;;;;60.00;44.75;;;;;14.15;34.48;102309.22;5037146;28;47522;-75
2022/03/25 05:37:55;;;;;;;;;64.75;43.50;;;;;14.19;34.49;102312.69;5055288;28;45362;-74
2022/03/25 05:40:22;;;;;;;;;56.50;42.75;;;;;14.07;34.92;102302.34;5055512;28;45328;-74
2022/03/25 05:42:49;;;;;;;;;57.75;43.50;;;;;14.14;34.81;102322.75;5055243;28;45643;-74
2022/03/25 05:45:17;;;;;;;;;55.33;43.67;;;;;14.12;35.12;102313.84;5055612;28;45481;-76
2022/03/25 05:47:43;;;;;;;;;54.33;43.00;;;;;14.09;34.87;102311.25;5055128;28;45468;-75
2022/03/25 05:50:11;;;;;;;;;60.67;43.33;;;;;14.12;35.17;102320.09;5055257;28;45309;-74
2022/03/25 05:52:37;;;;;;;;;58.67;44.67;;;;;13.79;35.01;102260.16;5033042;28;45355;-74
2022/03/25 05:55:08;;;;;;;;;58.67;41.33;;;;;14.12;34.22;102321.94;5052942;28;45388;-75
2022/03/25 05:57:33;;;;;;;;;58.50;45.00;;;;;13.98;34.63;102306.25;5054329;28;45361;-73
2022/03/25 05:59:59;;;;;;;;;59.00;46.25;;;;;13.98;34.52;102306.25;5054505;28;45533;-76
2022/03/25 06:02:26;;;;;;;;;57.50;45.00;;;;;14.07;34.91;102323.91;5054853;28;45579;-75
2022/03/25 06:04:52;;;;;;;;;52.00;39.25;;;;;13.94;35.34;102300.09;5054486;28;45516;-76
2022/03/25 06:07:18;;;;;;;;;58.25;44.75;;;;;13.99;35.07;102314.28;5055764;28;45465;-76
2022/03/25 06:09:43;;;;;;;;;54.25;44.00;;;;;13.97;35.51;102317.94;5058113;28;45453;-75
2022/03/25 06:12:10;;;;;;;;;56.50;41.50;;;;;13.92;35.24;102307.34;5054980;28;45425;-75
2022/03/25 06:14:35;;;;;;;;;58.75;42.00;;;;;14.07;34.76;102342.78;5054843;28;46400;-76
2022/03/25 06:17:01;;;;;;;;;55.00;40.33;;;;;14.03;34.90;102332.09;5033058;28;45379;-75
2022/03/25 06:19:27;;;;;;;;;63.00;45.75;;;;;14.04;35.40;102341.06;5053508;28;45513;-74
2022/03/25 06:21:53;;;;;;;;;63.25;45.50;;;;;14.06;34.92;102338.31;5055076;28;45306;-77
2022/03/25 06:24:18;;;;;;;;;55.00;45.00;;;;;13.98;34.90;102326.00;5054484;28;46507;-75
2022/03/25 06:26:44;;;;;;;;;55.25;40.00;;;;;14.13;35.87;102347.94;5055701;28;45347;-74
2022/03/25 06:29:09;;;;;;;;;56.25;44.00;;;;;14.18;35.66;102348.69;5055277;28;45395;-73
2022/03/25 06:31:34;;;;;;;;;55.50;44.00;;;;;14.23;34.96;102352.97;5054203;28;45540;-74
2022/03/25 06:34:00;;;;;;;;;60.00;43.50;;;;;14.24;34.90;102352.06;5054183;28;45260;-76
2022/03/25 06:36:25;;;;;;;;;59.00;45.67;;;;;14.19;34.79;102348.66;5054537;28;45386;-75
2022/03/25 06:38:51;;;;;;;;;54.00;43.00;;;;;14.21;35.12;102341.34;5054103;28;45378;-81
2022/03/25 06:41:16;;;;;;;;;55.00;42.00;;;;;14.30;35.45;102357.22;5032939;28;45802;-74
2022/03/25 06:43:42;;;;;;;;;50.75;42.00;;;;;14.28;35.15;102345.63;5052378;28;47247;-75
2022/03/25 06:46:07;;;;;;;;;53.25;43.75;;;;;14.36;35.33;102353.44;5054283;28;45344;-75
2022/03/25 06:48:33;;;;;;;;;55.75;40.75;;;;;14.37;35.42;102349.81;5054210;28;45424;-76
2022/03/25 06:50:59;;;;;;;;;55.50;45.50;;;;;14.35;35.06;102346.28;5054260;28;45420;-72
2022/03/25 06:53:26;;;;;;;;;63.50;46.50;;;;;14.49;35.05;102367.38;5054034;28;45444;-75
2022/03/25 06:55:52;;;;;;;;;58.75;43.50;;;;;14.49;34.82;102362.88;5035726;28;45391;-72
2022/03/25 06:58:17;;;;;;;;;56.33;44.67;;;;;14.43;34.44;102359.53;5054256;28;45185;-71
2022/03/25 07:00:44;;;;;;;;;58.75;41.50;;;;;14.49;34.82;102364.69;5035852;28;45330;-72
2022/03/25 07:03:10;;;;;;;;;58.00;44.25;;;;;14.56;35.20;102366.22;5049409;28;46534;-72
2022/03/25 07:05:36;;;;;;;;;58.75;45.00;;;;;14.57;35.51;102357.19;5053666;28;45256;-73
2022/03/25 07:08:02;;;;;;;;;56.25;42.25;;;;;14.68;35.06;102366.66;5053158;28;45409;-73
2022/03/25 07:10:27;;;;;;;;;59.25;44.00;;;;;14.66;35.14;102364.94;5055038;28;45636;-75
2022/03/25 07:12:54;;;;;;;;;58.50;42.00;;;;;14.74;34.54;102379.03;5057042;28;46029;-72
2022/03/25 07:15:21;;;;;;;;;59.50;42.00;;;;;14.79;34.69;102378.88;5039297;28;45285;-72
2022/03/25 07:17:47;;;;;;;;;59.25;42.75;;;;;14.82;34.52;102374.22;5056634;28;45531;-72
2022/03/25 07:20:14;;;;;;;;;55.25;39.50;;;;;14.86;34.82;102380.41;5057054;28;45231;-72
2022/03/25 07:22:45;;;;;;;;;56.33;45.33;;;;;14.80;34.35;102364.44;5056355;28;45436;-72
2022/03/25 07:25:11;;;;;;;;;60.00;44.00;;;;;14.81;34.57;102372.47;5056999;28;45390;-72
2022/03/25 07:27:37;;;;;;;;;59.33;45.67;;;;;14.85;34.43;102375.94;5056673;28;45553;-73
2022/03/25 07:30:04;;;;;;;;;53.00;39.75;;;;;14.89;34.02;102388.38;5057377;28;45274;-73
2022/03/25 07:32:30;;;;;;;;;56.75;43.00;;;;;14.75;34.29;102370.00;5055798;28;46553;-73
2022/03/25 07:34:56;;;;;;;;;63.67;46.00;;;;;14.83;34.42;102380.53;5056917;28;45400;-70
2022/03/25 07:37:22;;;;;;;;;59.25;44.75;;;;;14.91;34.33;102391.91;5056378;28;45306;-73
2022/03/25 07:39:48;;;;;;;;;62.75;44.50;;;;;14.96;34.42;102389.94;5056692;28;45402;-72
2022/03/25 07:42:13;;;;;;;;;56.25;45.00;;;;;14.90;34.10;102382.94;5055972;28;46021;-71
2022/03/25 07:44:39;;;;;;;;;60.75;49.25;;;;;14.95;33.63;102393.56;5056753;28;45496;-74
2022/03/25 07:47:06;;;;;;;;;54.33;44.33;;;;;15.03;34.01;102405.84;5056435;28;45346;-74
2022/03/25 07:49:34;;;;;;;;;55.67;43.33;;;;;14.97;33.95;102387.16;5056203;28;45465;-72
2022/03/25 07:52:03;;;;;;;;;61.33;46.33;;;;;15.07;33.62;102395.78;5056298;28;45698;-74
2022/03/25 07:54:28;;;;;;;;;59.33;46.67;;;;;15.10;33.57;102399.25;5055764;28;45452;-72
2022/03/25 07:56:57;;;;;;;;;62.33;46.00;;;;;15.05;33.06;102390.47;5056642;28;45399;-73
2022/03/25 07:59:23;;;;;;;;;56.25;39.50;;;;;15.08;33.42;102406.53;5054953;28;45632;-73
2022/03/25 08:01:48;;;;;;;;;47.33;39.00;;;;;15.14;33.68;102402.75;5054684;28;46105;-73
2022/03/25 08:04:14;;;;;;;;;58.50;44.75;;;;;15.18;33.11;102409.78;5055493;28;45418;-72
2022/03/25 08:06:40;;;;;;;;;58.50;45.00;;;;;15.20;33.13;102413.31;5056537;28;45570;-71
2022/03/25 08:09:05;;;;;;;;;60.00;44.75;;;;;15.25;33.08;102407.72;5055998;28;45496;-73
2022/03/25 08:11:31;;;;;;;;;61.00;46.00;;;;;15.23;33.54;102396.94;5056097;28;46578;-72
2022/03/25 08:13:56;;;;;;;;;59.67;45.67;;;;;15.31;32.29;102410.19;5056222;28;45514;-72
2022/03/25 08:16:22;;;;;;;;;59.33;48.00;;;;;15.32;32.59;102398.41;5056272;28;45546;-75
2022/03/25 08:18:48;;;;;;;;;48.25;34.50;;;;;15.30;32.74;102405.72;5055623;28;45424;-73
2022/03/25 08:21:14;;;;;;;;;62.25;44.00;;;;;15.38;32.83;102414.41;5055288;28;46149;-73
2022/03/25 08:29:10;;;;;;;;;64.33;47.33;;;;;15.47;32.40;102404.13;5056145;28;45454;-71
2022/03/25 08:31:35;;;;;;;;;65.33;47.67;;;;;15.52;32.45;102401.22;5056382;28;46218;-73
2022/03/25 08:34:07;;;;;;;;;58.67;44.33;;;;;15.56;32.35;102408.31;5055914;28;45434;-73
2022/03/25 08:36:33;;;;;;;;;62.33;48.33;;;;;15.56;31.70;102393.91;5056526;28;45357;-73
2022/03/25 08:38:58;;;;;;;;;57.25;43.25;;;;;15.67;32.07;102403.34;5055383;28;45552;-73
2022/03/25 08:41:24;;;;;;;;;55.75;43.75;;;;;15.71;32.46;102396.88;5055419;28;46014;-72
2022/03/25 08:43:49;;;;;;;;;56.67;45.00;;;;;15.83;32.34;102409.00;5053909;28;47199;-73
2022/03/25 08:46:14;;;;;;;;;62.25;47.50;;;;;15.85;31.65;102408.00;5056687;28;45486;-74
2022/03/25 08:48:40;;;;;;;;;62.75;46.75;;;;;15.88;32.08;102421.41;5055509;28;45485;-74
2022/03/25 08:51:06;;;;;;;;;62.50;48.50;;;;;15.87;31.93;102406.09;5055830;28;45455;-73
2022/03/25 08:53:32;;;;;;;;;61.25;47.75;;;;;15.98;31.87;102418.31;5055512;28;45327;-74
2022/03/25 08:55:58;;;;;;;;;64.67;48.00;;;;;15.92;31.71;102397.78;5055786;28;45421;-73
2022/03/25 08:58:23;;;;;;;;;65.33;47.67;;;;;16.07;31.93;102410.69;5055399;28;45469;-73
2022/03/25 09:00:49;;;;;;;;;63.00;47.33;;;;;16.09;31.45;102411.47;5055548;28;45449;-72
2022/03/25 09:03:14;;;;;;;;;61.00;47.33;;;;;16.09;31.65;102414.19;5037681;28;45655;-73
2022/03/25 09:05:39;;;;;;;;;63.00;46.75;;;;;16.07;30.98;102404.41;5056070;28;45399;-72
2022/03/25 09:08:06;;;;;;;;;61.50;47.00;;;;;16.09;30.47;102389.84;5034194;28;45794;-73
2022/03/25 09:10:32;;;;;;;;;63.33;47.33;;;;;16.22;30.87;102404.63;5047170;28;45340;-74
2022/03/25 09:12:58;;;;;;;;;60.00;46.00;;;;;16.25;31.20;102401.75;5055691;28;45520;-72
2022/03/25 09:15:24;;;;;;;;;59.00;48.00;;;;;16.27;30.74;102399.00;5056029;28;45452;-73
2022/03/25 09:17:50;;;;;;;;;67.67;49.00;;;;;16.36;30.26;102406.72;5055212;28;45508;-71
2022/03/25 09:20:16;;;;;;;;;58.67;45.33;;;;;16.43;30.26;102410.03;5055578;28;45317;-74
2022/03/25 09:22:43;;;;;;;;;63.33;48.00;;;;;16.38;30.34;102396.72;5055387;28;45429;-73
2022/03/25 09:25:10;;;;;;;;;60.00;47.00;;;;;16.48;30.44;102405.31;5055634;28;45421;-72
2022/03/25 09:27:37;;;;;;;;;66.33;47.67;;;;;16.51;30.24;102400.63;5055151;28;45324;-73
2022/03/25 09:30:04;;;;;;;;;69.67;51.00;;;;;16.59;29.84;102403.88;5055184;28;45401;-71
2022/03/25 09:32:30;;;;;;;;;63.00;47.33;;;;;16.65;29.53;102410.91;5054855;28;45524;-72
2022/03/25 09:35:13;;;;;;;;;64.33;47.67;;;;;16.66;29.69;102399.13;5055206;28;45433;-74
2022/03/25 09:37:50;;;;;;;;;58.33;47.00;;;;;16.73;29.57;102397.00;5054790;28;45413;-72
2022/03/25 09:40:19;;;;;;;;;63.33;48.67;;;;;16.84;29.24;102409.09;5054831;28;46291;-73
2022/03/25 09:42:46;;;;;;;;;61.67;47.33;;;;;16.90;29.27;102403.41;5055132;28;45401;-72
2022/03/25 09:45:13;;;;;;;;;65.00;48.00;;;;;16.98;29.26;102403.94;5055198;28;45365;-73
2022/03/25 09:47:40;;;;;;;;;65.00;50.33;;;;;17.07;29.49;102402.63;5054797;28;45454;-71
2022/03/25 09:50:08;;;;;;;;;64.00;47.00;;;;;17.10;29.33;102396.19;5054834;28;46105;-72
2022/03/25 09:52:34;;;;;;;;;64.25;48.75;;;;;17.17;29.44;102403.09;5054719;28;45414;-74
2022/03/25 09:55:01;;;;;;;;;62.50;47.00;;;;;17.11;29.17;102368.13;5054594;28;45302;-72
2022/03/25 09:57:26;;;;;;;;;62.75;48.75;;;;;17.33;28.84;102399.56;5054833;28;45172;-73
2022/03/25 09:59:56;;;;;;;;;68.33;48.67;;;;;17.32;28.36;102395.09;5054704;28;45444;-73
2022/03/25 10:02:21;;;;;;;;;64.00;48.67;;;;;17.41;28.82;102410.06;5054901;28;45383;-73
2022/03/25 10:04:49;;;;;;;;;63.50;50.00;;;;;17.48;29.27;102406.09;5054934;28;45409;-73
2022/03/25 10:07:23;;;;;;;;;64.50;48.25;;;;;17.29;29.08;102369.97;5054942;28;45229;-72
2022/03/25 10:10:05;;;;;;;;;60.00;46.00;;;;;17.52;29.08;102395.97;5055111;28;46887;-74
2022/03/25 10:12:30;;;;;;;;;63.00;49.00;;;;;17.61;28.96;102400.94;5054981;28;45427;-72
2022/03/25 10:15:10;;;;;;;;;64.00;45.50;;;;;17.66;28.63;102397.09;5055077;28;45373;-72
2022/03/25 10:17:49;;;;;;;;;66.75;49.00;;;;;17.58;28.41;102388.41;5054771;28;45270;-73
2022/03/25 10:20:16;;;;;;;;;66.25;48.50;;;;;17.74;28.57;102394.88;5054591;28;46047;-72
2022/03/25 10:23:06;;;;;;;;;66.00;50.00;;;;;17.78;28.69;102396.47;5054285;28;45420;-72
2022/03/25 10:25:41;;;;;;;;;66.25;48.50;;;;;17.64;28.64;102357.44;5054668;28;45517;-73
2022/03/25 10:28:24;;;;;;;;;64.00;48.00;;;;;17.84;28.32;102389.88;5054323;28;45374;-73
2022/03/25 10:30:52;;;;;;;;;66.00;50.67;;;;;17.72;28.30;102361.50;5054189;28;46641;-74
2022/03/25 10:33:26;;;;;;;;;65.50;49.00;;;;;17.96;28.81;102394.66;5054215;28;45347;-74
2022/03/25 10:36:07;;;;;;;;;67.00;49.50;;;;;18.03;29.29;102385.25;5054794;28;45345;-74
2022/03/25 10:38:49;;;;;;;;;64.00;48.75;;;;;18.05;27.84;102383.34;5054152;28;45363;-73
2022/03/25 10:41:17;;;;;;;;;58.00;46.50;;;;;18.06;28.35;102368.81;5054306;28;45377;-75
2022/03/25 10:44:02;;;;;;;;;67.25;49.50;;;;;18.11;27.89;102369.47;5053941;28;45307;-72
2022/03/25 10:46:41;;;;;;;;;63.75;49.75;;;;;18.24;27.44;102380.56;5053906;28;45496;-75
2022/03/25 10:49:15;;;;;;;;;60.75;43.25;;;;;18.31;28.03;102376.56;5053866;28;46072;-73
2022/03/25 10:51:43;;;;;;;;;52.00;41.00;;;;;18.24;26.81;102356.13;5055148;28;45404;-76
2022/03/25 10:54:11;;;;;;;;;58.00;47.75;;;;;18.39;26.69;102371.63;5053960;28;45456;-78
2022/03/25 10:56:46;;;;;;;;;69.25;48.00;;;;;18.42;26.77;102366.03;5036753;28;45328;-75
2022/03/25 10:59:31;;;;;;;;;51.25;43.00;;;;;18.62;26.81;102378.59;5054238;28;45722;-77
2022/03/25 11:01:59;;;;;;;;;70.25;51.50;;;;;18.69;26.51;102379.13;5054686;28;46215;-77
2022/03/25 11:04:26;;;;;;;;;64.75;47.50;;;;;18.81;27.40;102381.16;5054126;28;45323;-76
2022/03/25 11:06:52;;;;;;;;;41.00;35.75;;;;;18.92;27.53;102384.19;5054111;28;45355;-75
2022/03/25 11:09:19;;;;;;;;;64.00;49.25;;;;;19.07;27.65;102374.31;5033798;28;45955;-74
2022/03/25 11:11:47;;;;;;;;;61.75;47.75;;;;;19.21;27.47;102372.59;5054413;28;46220;-77
2022/03/25 11:14:13;;;;;;;;;69.25;51.00;;;;;19.38;27.55;102377.09;5054455;28;45279;-75
2022/03/25 11:16:47;;;;;;;;;66.00;51.00;;;;;19.57;27.31;102371.47;5054848;28;45353;-78
2022/03/25 11:19:14;;;;;;;;;60.25;46.25;;;;;19.72;27.04;102367.88;5054413;28;45247;-77
2022/03/25 11:21:42;;;;;;;;;63.25;49.00;;;;;19.97;27.43;102364.59;5054390;28;45499;-80
2022/03/25 11:24:20;;;;;;;;;65.33;51.00;;;;;20.09;26.47;102343.91;5054246;28;45355;-80
2022/03/25 11:26:49;;;;;;;;;66.25;51.50;;;;;20.30;26.84;102339.88;5055619;28;45504;-80
2022/03/25 11:29:17;;;;;;;;;65.00;49.50;;;;;20.44;26.10;102328.16;5054417;28;45393;-78
2022/03/25 11:32:07;;;;;;;;;67.50;52.00;;;;;20.71;25.48;102338.22;5054389;28;45466;-81
2022/03/25 11:34:38;;;;;;;;;60.75;48.00;;;;;21.07;25.94;102355.94;5056201;28;45489;-80
2022/03/25 11:37:21;;;;;;;;;67.25;49.50;;;;;21.14;25.37;102330.88;5055515;28;45323;-78
2022/03/25 11:39:48;;;;;;;;;70.25;50.75;;;;;21.32;24.34;102334.31;5056338;28;45450;-78
2022/03/25 11:42:35;;;;;;;;;66.50;48.25;;;;;21.59;24.27;102352.56;5054629;28;46160;-75
2022/03/25 11:45:24;;;;;;;;;59.25;47.50;;;;;21.84;24.19;102344.47;5053404;28;45485;-76
2022/03/25 11:47:59;;;;;;;;;69.75;48.75;;;;;21.89;23.46;102339.56;5044824;28;45413;-74
2022/03/25 11:50:25;;;;;;;;;64.25;49.50;;;;;21.95;23.68;102338.28;5053210;28;45684;-73
2022/03/25 11:52:51;;;;;;;;;64.00;47.00;;;;;22.06;23.46;102333.84;5053407;28;46285;-76
2022/03/25 11:55:16;;;;;;;;;66.25;49.50;;;;;22.09;23.45;102325.44;5053094;28;45247;-74
2022/03/25 11:57:44;;;;;;;;;59.75;47.50;;;;;22.20;23.14;102341.09;5057054;28;45275;-76
2022/03/25 12:00:28;;;;;;;;;62.75;46.50;;;;;22.21;22.49;102319.13;5056671;28;45649;-79
2022/03/25 12:03:05;;;;;;;;;56.75;44.75;;;;;22.39;22.49;102332.47;5056976;28;46383;-76
2022/03/25 12:05:32;;;;;;;;;59.00;45.00;;;;;22.61;22.59;102332.72;5057044;28;45523;-76
2022/03/25 12:08:25;;;;;;;;;58.25;45.75;;;;;22.80;21.77;102332.28;5056948;28;45398;-77
2022/03/25 12:10:53;;;;;;;;;54.00;42.75;;;;;23.07;21.29;102311.13;5056721;28;45604;-77
2022/03/25 12:13:20;;;;;;;;;58.00;45.00;;;;;23.32;20.91;102321.13;5056255;28;46288;-78
2022/03/25 12:15:47;;;;;;;;;60.25;46.00;;;;;23.48;21.07;102309.94;5055588;28;45452;-77
2022/03/25 12:18:38;;;;;;;;;57.50;45.25;;;;;23.80;20.74;102307.50;5056718;28;45769;-77
2022/03/25 12:21:03;;;;;;;;;66.50;47.50;;;;;24.14;20.10;102307.50;5056280;28;45571;-76
2022/03/25 12:23:29;;;;;;;;;57.50;44.00;;;;;24.47;19.96;102306.75;5055845;28;47130;-77
2022/03/25 12:25:55;;;;;;;;;57.75;46.00;;;;;24.82;19.77;102292.06;5056264;28;45520;-77
2022/03/25 12:28:26;;;;;;;;;58.75;43.75;;;;;25.48;18.62;102292.97;5056618;28;45335;-77
2022/03/25 12:30:54;;;;;;;;;63.75;46.50;;;;;26.11;18.22;102283.00;5037950;28;45347;-78
2022/03/25 12:33:20;;;;;;;;;54.00;44.00;;;;;26.93;17.59;102292.19;5055959;28;45370;-75
2022/03/25 12:35:46;;;;;;;;;58.50;46.25;;;;;27.73;16.79;102281.09;5055823;28;45358;-76
2022/03/25 12:38:24;;;;;;;;;59.50;45.50;;;;;28.38;16.03;102277.56;5056518;28;45363;-77
2022/03/25 12:40:54;;;;;;;;;58.75;47.25;;;;;28.99;16.05;102274.31;5056480;28;45553;-75
2022/03/25 12:43:29;;;;;;;;;57.50;46.00;;;;;29.62;15.24;102278.00;5055758;28;46076;-78
2022/03/25 12:45:56;;;;;;;;;58.00;45.75;;;;;30.18;14.84;102270.41;5039030;28;45399;-77
2022/03/25 12:48:23;;;;;;;;;60.50;47.25;;;;;30.91;13.91;102266.19;5055948;28;45329;-76
2022/03/25 12:50:49;;;;;;;;;52.00;43.00;;;;;31.56;13.78;102269.19;5055856;28;45426;-76
2022/03/25 12:53:16;;;;;;;;;55.00;45.25;;;;;32.24;13.57;102263.41;5055219;28;46266;-77
2022/03/25 12:55:43;;;;;;;;;59.75;46.75;;;;;32.87;12.34;102260.66;5056135;28;45525;-77
2022/03/25 12:58:13;;;;;;;;;57.50;46.00;;;;;33.37;11.91;102243.56;5055702;28;45403;-77
2022/03/25 13:00:42;;;;;;;;;51.50;40.75;;;;;33.81;11.75;102242.94;5055076;28;45386;-78
2022/03/25 13:03:10;;;;;;;;;51.75;39.75;;;;;34.32;11.49;102245.97;5054551;28;46014;-76
2022/03/25 13:05:37;;;;;;;;;52.00;41.50;;;;;34.72;11.15;102244.63;5055240;28;45164;-78
2022/03/25 13:08:04;;;;;;;;;53.25;40.25;;;;;35.10;11.48;102250.97;5054143;28;45534;-76
2022/03/25 13:10:30;;;;;;;;;52.25;42.50;;;;;35.43;10.83;102235.53;5055185;28;45783;-76
2022/03/25 13:12:59;;;;;;;;;57.00;43.50;;;;;35.72;10.18;102236.50;5053462;28;46113;-76
2022/03/25 13:15:34;;;;;;;;;56.50;44.75;;;;;35.86;10.48;102241.13;5053180;28;45559;-77
2022/03/25 13:18:06;;;;;;;;;50.50;42.50;;;;;35.85;9.95;102229.09;5057270;28;45464;-77
2022/03/25 13:20:45;;;;;;;;;48.75;38.75;;;;;35.96;10.31;102231.34;5056879;28;45464;-76
2022/03/25 13:23:22;;;;;;;;;60.25;44.75;;;;;36.14;10.00;102230.88;5046409;28;45502;-77
2022/03/25 13:25:50;;;;;;;;;60.50;45.75;;;;;36.33;9.98;102227.34;5056458;28;45674;-76
2022/03/25 13:28:30;;;;;;;;;51.50;41.75;;;;;36.42;10.14;102211.31;5055740;28;45409;-76
2022/03/25 13:30:58;;;;;;;;;53.50;43.25;;;;;36.55;9.90;102218.91;5054831;28;45638;-77
2022/03/25 13:33:26;;;;;;;;;57.00;44.25;;;;;36.56;9.42;102210.34;5038039;28;47230;-76
2022/03/25 13:35:58;;;;;;;;;46.00;36.00;;;;;36.53;9.49;102224.72;5056278;28;45453;-76
2022/03/25 13:38:40;;;;;;;;;53.00;43.50;;;;;36.47;9.65;102208.78;5054806;28;45567;-76
2022/03/25 13:41:09;;;;;;;;;50.00;39.25;;;;;36.68;9.69;102219.00;5056069;28;45376;-76
2022/03/25 13:43:38;;;;;;;;;56.25;44.25;;;;;36.52;9.78;102183.00;5055207;28;46253;-76
2022/03/25 13:46:09;;;;;;;;;60.75;44.00;;;;;36.64;9.50;102215.75;5039936;28;45244;-75
2022/03/25 13:48:44;;;;;;;;;51.00;39.00;;;;;36.52;9.14;102210.94;5055431;28;45625;-77
2022/03/25 13:51:26;;;;;;;;;50.25;41.75;;;;;36.50;9.39;102210.28;5037301;28;45538;-76
2022/03/25 13:54:06;;;;;;;;;44.75;37.75;;;;;36.43;9.29;102204.66;5055673;28;45394;-76
2022/03/25 13:56:38;;;;;;;;;49.75;39.00;;;;;36.39;8.85;102204.22;5055510;28;45371;-76
2022/03/25 13:59:04;;;;;;;;;50.25;41.75;;;;;36.29;9.02;102195.34;5055656;28;45323;-76
2022/03/25 14:01:31;;;;;;;;;47.75;38.50;;;;;36.36;9.55;102199.03;5055043;28;45350;-75
2022/03/25 14:04:08;;;;;;;;;46.75;38.50;;;;;36.25;9.15;102194.00;5054386;28;45419;-78
2022/03/25 14:06:39;;;;;;;;;28.00;20.00;;;;;36.14;9.22;102191.78;5054225;28;45414;-77
2022/03/25 14:09:23;;;;;;;;;50.00;37.50;;;;;36.09;8.77;102193.41;5054280;28;45392;-76
2022/03/25 14:11:49;;;;;;;;;49.25;39.00;;;;;36.16;9.05;102185.94;5054654;28;45382;-77
2022/03/25 14:14:25;;;;;;;;;48.50;39.00;;;;;36.13;8.36;102186.38;5054432;28;45955;-76
2022/03/25 14:16:55;;;;;;;;;42.00;35.00;;;;;35.89;8.63;102173.75;5032976;28;45380;-75
2022/03/25 14:19:23;;;;;;;;;45.50;37.25;;;;;35.99;8.73;102182.59;5049464;28;45387;-78
2022/03/25 14:21:48;;;;;;;;;47.25;37.25;;;;;35.86;8.93;102183.38;5054560;28;45500;-75
2022/03/25 14:24:34;;;;;;;;;45.75;36.50;;;;;35.62;8.28;102179.06;5053786;28;45484;-78
2022/03/25 14:27:02;;;;;;;;;41.50;35.25;;;;;35.56;8.71;102173.41;5049495;28;45439;-77
2022/03/25 14:29:28;;;;;;;;;48.00;39.50;;;;;35.48;8.65;102159.59;5055978;28;45452;-77
2022/03/25 14:31:53;;;;;;;;;46.50;39.50;;;;;35.24;9.05;102132.97;5054932;28;45424;-77
2022/03/25 14:34:19;;;;;;;;;53.25;39.50;;;;;35.31;8.57;102152.56;5054826;28;45910;-78
2022/03/25 14:36:45;;;;;;;;;46.25;37.50;;;;;35.35;9.30;102157.56;5054556;28;45424;-77
2022/03/25 14:39:11;;;;;;;;;44.75;37.00;;;;;35.33;8.91;102150.44;5054739;28;45383;-77
2022/03/25 14:41:39;;;;;;;;;44.00;36.00;;;;;35.14;9.30;102154.72;5054327;28;45429;-78
2022/03/25 14:44:08;;;;;;;;;48.25;38.50;;;;;35.14;9.09;102168.66;5036642;28;47125;-80
2022/03/25 14:46:39;;;;;;;;;43.75;35.75;;;;;35.10;9.46;102158.97;5054044;28;45342;-76
2022/03/25 14:49:09;;;;;;;;;46.00;34.25;;;;;35.08;8.88;102164.72;5054880;28;45364;-78
2022/03/25 14:51:36;;;;;;;;;39.00;32.25;;;;;35.05;8.69;102151.19;5055207;28;45372;-79
2022/03/25 14:54:02;;;;;;;;;43.50;35.75;;;;;34.97;8.45;102151.31;5052514;28;45498;-78
2022/03/25 14:56:28;;;;;;;;;47.00;37.25;;;;;34.88;9.00;102153.34;5054304;28;45553;-77
2022/03/25 14:58:54;;;;;;;;;42.00;33.00;;;;;34.91;8.85;102158.53;5054086;28;45491;-80
2022/03/25 15:01:20;;;;;;;;;49.25;37.25;;;;;34.88;9.36;102152.47;5053436;28;45670;-79
2022/03/25 15:03:46;;;;;;;;;48.50;39.00;;;;;34.67;9.60;102155.19;5053955;28;46034;-79
2022/03/25 15:06:13;;;;;;;;;44.25;33.50;;;;;34.39;9.57;102146.66;5053083;28;45380;-78
2022/03/25 15:08:40;;;;;;;;;47.25;37.00;;;;;34.20;9.52;102148.06;5052768;28;45601;-77
2022/03/25 15:11:06;;;;;;;;;51.25;39.50;;;;;33.94;9.99;102145.75;5052450;28;45737;-78
2022/03/25 15:13:32;;;;;;;;;50.00;39.25;;;;;33.62;10.17;102152.47;5053345;28;45441;-78
2022/03/25 15:15:58;;;;;;;;;44.25;35.00;;;;;33.16;9.99;102148.81;5053346;28;45303;-78
2022/03/25 15:18:24;;;;;;;;;47.75;38.75;;;;;32.85;10.58;102150.75;5053920;28;45653;-78
2022/03/25 15:20:50;;;;;;;;;46.50;39.00;;;;;32.55;10.46;102150.53;5053786;28;45447;-77
2022/03/25 15:23:16;;;;;;;;;50.50;41.50;;;;;32.15;10.94;102134.00;5053762;28;46628;-77
2022/03/25 15:25:42;;;;;;;;;51.75;42.25;;;;;31.88;11.53;102127.81;5053486;28;45381;-78
2022/03/25 15:28:08;;;;;;;;;53.50;41.50;;;;;31.61;12.09;102143.91;5055166;28;45372;-77
2022/03/25 15:36:02;;;;;;;;;55.25;42.50;;;;;30.84;12.57;102149.69;5055886;28;45475;-77
2022/03/25 15:38:27;;;;;;;;;60.50;45.00;;;;;30.60;12.53;102118.28;5053563;28;45449;-77
2022/03/25 15:40:54;;;;;;;;;51.50;42.50;;;;;30.70;13.42;102143.94;5057007;28;45356;-77
2022/03/25 15:43:19;;;;;;;;;58.75;47.75;;;;;30.46;13.00;102123.38;5058232;28;46057;-76
2022/03/25 15:45:46;;;;;;;;;58.00;46.75;;;;;30.30;12.73;102133.50;5057237;28;45322;-79
2022/03/25 15:48:12;;;;;;;;;60.50;44.75;;;;;30.21;13.15;102148.34;5057531;28;45324;-78
2022/03/25 15:50:37;;;;;;;;;59.25;41.75;;;;;30.02;13.01;102141.16;5057683;28;45350;-75
2022/03/25 15:53:03;;;;;;;;;40.75;34.00;;;;;29.85;12.80;102142.06;5056677;28;45377;-76
2022/03/25 15:55:29;;;;;;;;;51.50;42.00;;;;;29.73;13.57;102125.72;5057022;28;45540;-77
2022/03/25 15:57:56;;;;;;;;;50.75;39.75;;;;;29.68;13.06;102117.06;5057103;28;45369;-78
2022/03/25 16:00:23;;;;;;;;;53.50;43.25;;;;;29.66;12.63;102138.44;5057075;28;45405;-79
2022/03/25 16:02:49;;;;;;;;;53.50;40.75;;;;;29.76;12.91;102143.88;5056852;28;46695;-77
2022/03/25 16:05:15;;;;;;;;;54.50;43.00;;;;;29.69;13.15;102123.41;5056984;28;45265;-75
2022/03/25 16:07:41;;;;;;;;;57.75;45.00;;;;;29.57;12.97;102122.84;5056412;28;45458;-75
2022/03/25 16:10:08;;;;;;;;;62.00;46.75;;;;;29.61;13.01;102134.41;5056724;28;45462;-75
2022/03/25 16:12:33;;;;;;;;;51.50;39.00;;;;;29.55;13.83;102133.16;5053825;28;45536;-78
2022/03/25 16:14:59;;;;;;;;;58.00;46.75;;;;;29.54;13.49;102136.09;5056384;28;45419;-76
2022/03/25 16:17:25;;;;;;;;;63.25;48.50;;;;;29.44;13.87;102133.41;5056175;28;45421;-77
2022/03/25 16:19:50;;;;;;;;;34.00;30.25;;;;;29.39;13.83;102130.28;5056645;28;45547;-77
2022/03/25 16:22:16;;;;;;;;;58.50;45.00;;;;;29.26;13.75;102135.31;5055522;28;45666;-76
2022/03/25 16:24:44;;;;;;;;;63.00;47.75;;;;;29.06;13.98;102118.03;5056211;28;45374;-77
2022/03/25 16:27:10;;;;;;;;;57.50;45.00;;;;;28.90;14.31;102115.97;5056415;28;45350;-76
2022/03/25 16:29:36;;;;;;;;;56.50;46.75;;;;;28.70;14.29;102110.69;5056030;28;45437;-77
2022/03/25 16:32:02;;;;;;;;;58.75;46.25;;;;;28.51;14.50;102128.22;5055360;28;45907;-76
2022/03/25 16:34:28;;;;;;;;;62.75;47.75;;;;;28.41;14.08;102136.56;5054160;28;45505;-76
2022/03/25 16:36:54;;;;;;;;;36.75;31.25;;;;;28.17;14.91;102127.94;5055996;28;45316;-79
2022/03/25 16:39:19;;;;;;;;;61.50;46.50;;;;;28.07;14.65;102135.38;5055268;28;45619;-77
2022/03/25 16:41:46;;;;;;;;;63.75;49.50;;;;;27.95;14.59;102129.16;5055376;28;45513;-77
2022/03/25 16:44:11;;;;;;;;;51.00;39.50;;;;;27.85;15.13;102142.09;5055376;28;45507;-77
2022/03/25 16:46:38;;;;;;;;;62.00;47.00;;;;;27.75;15.29;102130.22;5054877;28;45589;-78
2022/03/25 16:49:03;;;;;;;;;56.25;46.00;;;;;27.57;15.50;102126.50;5055338;28;46130;-76
2022/03/25 16:51:29;;;;;;;;;66.25;51.00;;;;;27.33;15.58;102124.16;5037771;28;47949;-76
2022/03/25 16:53:54;;;;;;;;;68.75;53.00;;;;;27.01;15.75;102113.44;5055588;28;45402;-76
2022/03/25 16:56:20;;;;;;;;;57.75;47.50;;;;;26.68;15.97;102096.28;5056655;28;45154;-77